Time;durP1;ratioP1;P1;durP2;ratioP2;P2;SDS_P1;SDS_P2;PMS_P1;PMS_P2;Temp;Humidity;BMP_temperature;BMP_pressure;BME280_temperature;BME280_humidity;BME280_pressure;Samples;Min_cycle;Max_cycle;Signal;HPM_P1;HPM_P2
2021/05/20 00:02:09;;;;;;;9.65;5.95;;;15.00;62.50;;;;;;5073820;28;20391;-62
2021/05/20 00:04:35;;;;;;;9.30;5.85;;;15.00;62.50;;;;;;5072969;28;20476;-62
2021/05/20 00:07:01;;;;;;;7.65;5.47;;;14.90;62.40;;;;;;5073929;28;20037;-62
2021/05/20 00:09:28;;;;;;;6.57;5.40;;;14.90;62.30;;;;;;5069526;28;20032;-62
2021/05/20 00:11:54;;;;;;;9.52;6.25;;;14.80;62.20;;;;;;5064852;28;20127;-62
2021/05/20 00:14:19;;;;;;;7.85;5.45;;;14.80;62.30;;;;;;5072483;28;20412;-62
2021/05/20 00:16:45;;;;;;;30.40;3.95;;;14.80;62.50;;;;;;5073568;28;20025;-62
2021/05/20 00:19:11;;;;;;;12.23;5.65;;;14.80;62.70;;;;;;5071954;28;20039;-62
2021/05/20 00:21:37;;;;;;;10.13;6.18;;;14.70;62.90;;;;;;5073380;28;20503;-62
2021/05/20 00:24:03;;;;;;;11.25;6.78;;;14.70;63.40;;;;;;5073548;28;20515;-62
2021/05/20 00:26:30;;;;;;;8.48;6.32;;;14.70;63.70;;;;;;5072647;28;20111;-62
2021/05/20 00:28:56;;;;;;;14.13;6.60;;;14.60;64.00;;;;;;5072121;28;20025;-62
2021/05/20 00:31:24;;;;;;;8.05;5.55;;;14.60;64.30;;;;;;5073216;28;20028;-62
2021/05/20 00:33:50;;;;;;;9.75;6.25;;;14.50;64.30;;;;;;5072361;28;20055;-62
2021/05/20 00:36:15;;;;;;;10.65;4.95;;;14.50;64.50;;;;;;5073269;28;20464;-62
2021/05/20 00:38:41;;;;;;;10.88;7.22;;;14.50;64.50;;;;;;5072951;28;20066;-62
2021/05/20 00:41:08;;;;;;;10.27;7.40;;;14.50;64.70;;;;;;5072466;28;20029;-62
2021/05/20 00:43:33;;;;;;;9.90;6.97;;;14.40;65.00;;;;;;5073070;28;20062;-62
2021/05/20 00:45:59;;;;;;;9.77;6.53;;;14.40;65.20;;;;;;5071003;28;20021;-62
2021/05/20 00:48:25;;;;;;;10.15;7.60;;;14.30;65.30;;;;;;5073150;28;20086;-62
2021/05/20 00:50:51;;;;;;;9.27;6.80;;;14.30;65.50;;;;;;5072948;28;20082;-62
2021/05/20 00:53:20;;;;;;;20.65;7.10;;;14.30;65.60;;;;;;5072258;28;20036;-62
2021/05/20 00:55:49;;;;;;;9.18;6.22;;;14.20;65.70;;;;;;5072871;28;20024;-62
2021/05/20 00:58:17;;;;;;;9.27;6.63;;;14.20;65.80;;;;;;5072761;28;20452;-62
2021/05/20 01:00:43;;;;;;;9.90;7.05;;;14.20;65.90;;;;;;5072453;28;20138;-62
2021/05/20 01:03:08;;;;;;;11.82;6.30;;;14.10;65.90;;;;;;5072551;28;20817;-62
2021/05/20 01:05:37;;;;;;;10.85;6.35;;;14.10;66.10;;;;;;5072765;28;20124;-62
2021/05/20 01:08:03;;;;;;;10.00;6.40;;;14.00;66.20;;;;;;5071910;28;20461;-62
2021/05/20 01:10:29;;;;;;;10.35;6.00;;;14.00;66.90;;;;;;5073169;28;20024;-62
2021/05/20 01:12:54;;;;;;;10.00;6.35;;;14.00;66.30;;;;;;5072493;28;20060;-62
2021/05/20 01:15:24;;;;;;;9.13;6.47;;;14.00;66.40;;;;;;5072795;28;20118;-62
2021/05/20 01:18:01;;;;;;;9.73;6.50;;;13.90;66.40;;;;;;5072448;28;20033;-62
2021/05/20 01:20:41;;;;;;;12.10;6.75;;;13.90;66.60;;;;;;5059781;28;20094;-62
2021/05/20 01:23:10;;;;;;;8.60;6.55;;;13.80;66.70;;;;;;5071527;28;20032;-62
2021/05/20 01:25:37;;;;;;;10.10;7.22;;;13.80;66.90;;;;;;5072671;28;20021;-62
2021/05/20 01:28:08;;;;;;;9.27;7.15;;;13.80;67.10;;;;;;5072695;28;20089;-62
2021/05/20 01:30:35;;;;;;;12.20;6.32;;;13.70;67.20;;;;;;5072336;28;20157;-62
2021/05/20 01:33:02;;;;;;;14.73;7.32;;;13.70;67.50;;;;;;5072445;28;20491;-62
2021/05/20 01:35:27;;;;;;;14.35;7.97;;;13.70;67.90;;;;;;5071645;28;20028;-62
2021/05/20 01:40:55;;;;;;;12.18;6.53;;;13.50;68.40;;;;;;5072669;28;20074;-62
2021/05/20 01:43:22;;;;;;;9.10;5.80;;;13.60;68.50;;;;;;5071513;28;20119;-62
2021/05/20 01:45:56;;;;;;;9.48;5.80;;;13.50;68.70;;;;;;5072510;28;20035;-62
2021/05/20 01:48:22;;;;;;;7.22;4.93;;;13.50;69.20;;;;;;5072111;28;20103;-62
2021/05/20 01:50:48;;;;;;;8.52;5.50;;;13.50;69.60;;;;;;5071683;28;20115;-62
2021/05/20 01:53:14;;;;;;;10.25;6.30;;;13.40;69.60;;;;;;5071728;28;20028;-62
2021/05/20 01:55:39;;;;;;;8.80;6.28;;;13.40;69.90;;;;;;5072095;28;20021;-62
2021/05/20 01:58:05;;;;;;;9.10;6.72;;;13.40;69.70;;;;;;5061363;28;20029;-62
2021/05/20 02:00:31;;;;;;;10.52;6.68;;;13.30;69.50;;;;;;5070230;28;20460;-62
2021/05/20 02:02:56;;;;;;;10.65;7.35;;;13.30;69.40;;;;;;5071479;28;20051;-62
2021/05/20 02:05:22;;;;;;;9.15;6.30;;;13.30;69.40;;;;;;5064903;28;20052;-62
2021/05/20 02:07:48;;;;;;;9.90;6.65;;;13.30;69.50;;;;;;5071978;28;20043;-62
2021/05/20 02:10:14;;;;;;;9.73;6.95;;;13.30;69.60;;;;;;5073981;28;20032;-62
2021/05/20 02:12:40;;;;;;;9.77;7.03;;;13.30;69.60;;;;;;5074908;28;20483;-62
2021/05/20 02:15:06;;;;;;;9.30;6.90;;;13.20;69.80;;;;;;5075616;28;20055;-62
2021/05/20 02:17:32;;;;;;;9.93;6.43;;;13.20;70.00;;;;;;5062428;28;20039;-62
2021/05/20 02:19:58;;;;;;;10.02;6.70;;;13.20;70.10;;;;;;5071675;28;20028;-62
2021/05/20 02:22:24;;;;;;;10.38;6.72;;;13.10;70.20;;;;;;5075712;28;20048;-62
2021/05/20 02:24:49;;;;;;;8.52;6.47;;;13.10;70.20;;;;;;5074774;28;20028;-62
2021/05/20 02:27:15;;;;;;;14.10;7.35;;;13.10;70.20;;;;;;5075541;28;20078;-62
2021/05/20 02:29:41;;;;;;;14.40;7.07;;;13.00;70.10;;;;;;5075762;28;20024;-62
2021/05/20 02:32:06;;;;;;;12.50;6.60;;;13.10;70.00;;;;;;5074856;28;20035;-62
2021/05/20 02:34:32;;;;;;;10.85;6.38;;;13.00;69.80;;;;;;5075840;28;20029;-62
2021/05/20 02:36:58;;;;;;;11.68;7.28;;;13.00;70.00;;;;;;5075531;28;20422;-62
2021/05/20 02:39:23;;;;;;;11.45;7.30;;;13.00;70.00;;;;;;5074777;28;20032;-62
2021/05/20 02:41:49;;;;;;;11.02;7.45;;;13.00;69.90;;;;;;5075395;28;20082;-62
2021/05/20 02:44:15;;;;;;;12.75;7.50;;;13.00;69.80;;;;;;5075584;28;20388;-62
2021/05/20 02:46:41;;;;;;;10.32;7.03;;;13.00;69.80;;;;;;5073369;28;20028;-62
2021/05/20 02:49:06;;;;;;;10.65;7.68;;;12.90;69.80;;;;;;5075411;28;20036;-62
2021/05/20 02:51:32;;;;;;;12.15;7.63;;;13.00;69.80;;;;;;5075485;28;20028;-62
2021/05/20 02:53:58;;;;;;;9.10;6.38;;;13.00;69.90;;;;;;5074503;28;20024;-62
2021/05/20 02:56:23;;;;;;;9.90;6.50;;;12.90;69.80;;;;;;5075481;28;20051;-62
2021/05/20 02:58:49;;;;;;;10.70;6.85;;;12.90;69.80;;;;;;5075027;28;20024;-62
2021/05/20 03:01:15;;;;;;;9.73;6.40;;;12.90;69.90;;;;;;5074413;28;20502;-62
2021/05/20 03:03:40;;;;;;;10.52;6.68;;;12.80;70.10;;;;;;5075284;28;20129;-62
2021/05/20 03:06:06;;;;;;;10.02;5.85;;;12.70;70.20;;;;;;5074616;28;20041;-62
2021/05/20 03:08:33;;;;;;;8.52;6.15;;;12.80;70.40;;;;;;5074407;28;20033;-62
2021/05/20 03:10:59;;;;;;;9.60;6.72;;;12.70;70.40;;;;;;5074908;28;20021;-62
2021/05/20 03:13:24;;;;;;;9.23;6.40;;;12.70;70.50;;;;;;5075000;28;20478;-62
2021/05/20 03:15:50;;;;;;;7.90;5.95;;;12.70;70.60;;;;;;5074091;28;20452;-62
2021/05/20 03:18:16;;;;;;;10.75;6.68;;;12.60;70.70;;;;;;5074072;28;20028;-62
2021/05/20 03:20:41;;;;;;;9.30;5.75;;;12.60;70.60;;;;;;5073456;28;20456;-62
2021/05/20 03:23:07;;;;;;;12.30;6.60;;;12.60;70.90;;;;;;5074306;28;20046;-62
2021/05/20 03:25:35;;;;;;;8.63;6.05;;;12.60;70.90;;;;;;5073330;28;20087;-62
2021/05/20 03:28:00;;;;;;;14.35;6.35;;;12.50;70.90;;;;;;5072767;28;20028;-62
2021/05/20 03:30:26;;;;;;;8.77;5.80;;;12.50;71.00;;;;;;5074569;28;20027;-62
2021/05/20 03:32:52;;;;;;;53.83;6.63;;;12.50;71.00;;;;;;5074438;28;20032;-62
2021/05/20 03:35:18;;;;;;;87.30;6.68;;;12.40;71.10;;;;;;5073932;28;20111;-62
2021/05/20 03:37:43;;;;;;;61.10;6.25;;;12.40;71.10;;;;;;5074680;28;20077;-62
2021/05/20 03:40:09;;;;;;;58.20;6.72;;;12.40;71.20;;;;;;5074412;28;20025;-62
2021/05/20 03:42:36;;;;;;;69.65;6.25;;;12.40;71.20;;;;;;5073237;28;20056;-62
2021/05/20 03:45:03;;;;;;;91.70;5.95;;;12.40;71.30;;;;;;5073871;28;20058;-61
2021/05/20 03:47:29;;;;;;;35.25;5.35;;;12.30;71.30;;;;;;5073593;28;20033;-62
2021/05/20 03:49:54;;;;;;;51.55;6.13;;;12.30;71.40;;;;;;5060065;28;20032;-62
2021/05/20 03:52:20;;;;;;;27.80;6.05;;;12.30;71.60;;;;;;5071365;28;20107;-63
2021/05/20 03:54:46;;;;;;;32.05;5.82;;;12.30;71.70;;;;;;5073561;28;20024;-62
2021/05/20 03:57:17;;;;;;;46.30;6.97;;;12.30;71.80;;;;;;5067104;28;20029;-62
2021/05/20 03:59:43;;;;;;;84.55;6.93;;;12.20;71.70;;;;;;5068163;28;20024;-62
2021/05/20 04:02:09;;;;;;;52.15;6.28;;;12.20;71.60;;;;;;5068699;28;20051;-62
2021/05/20 04:04:35;;;;;;;117.97;7.65;;;12.20;71.60;;;;;;5072424;28;20090;-62
2021/05/20 04:07:01;;;;;;;67.30;6.70;;;12.20;71.60;;;;;;5073557;28;20037;-62
2021/05/20 04:09:27;;;;;;;39.45;6.47;;;12.20;71.60;;;;;;5073271;28;20028;-62
2021/05/20 04:11:53;;;;;;;24.48;5.00;;;12.20;71.60;;;;;;5072584;28;20132;-62
2021/05/20 04:14:18;;;;;;;39.20;5.57;;;12.20;71.60;;;;;;5073065;28;20099;-63
2021/05/20 04:16:44;;;;;;;66.30;6.13;;;12.20;71.60;;;;;;5073372;28;20062;-62
2021/05/20 04:19:11;;;;;;;25.67;4.07;;;12.20;71.90;;;;;;5071709;28;20066;-62
2021/05/20 04:21:37;;;;;;;65.70;6.05;;;12.20;72.10;;;;;;5073348;28;20036;-63
2021/05/20 04:24:03;;;;;;;40.35;5.18;;;12.10;72.10;;;;;;5057696;28;20435;-62
2021/05/20 04:26:31;;;;;;;33.30;5.75;;;12.10;72.20;;;;;;5057780;28;20365;-62
2021/05/20 04:29:00;;;;;;;21.42;5.47;;;12.10;72.30;;;;;;5059874;28;20025;-62
2021/05/20 04:31:25;;;;;;;23.95;6.00;;;12.10;72.40;;;;;;5056444;28;20423;-63
2021/05/20 04:33:51;;;;;;;24.65;5.22;;;12.00;72.40;;;;;;5060843;28;20472;-62
2021/05/20 04:36:17;;;;;;;83.97;7.90;;;12.00;72.40;;;;;;5057284;28;20082;-62
2021/05/20 04:38:43;;;;;;;60.78;8.18;;;12.00;72.50;;;;;;5059583;28;20032;-63
2021/05/20 04:41:09;;;;;;;77.80;7.50;;;12.00;72.50;;;;;;5057305;28;20025;-63
2021/05/20 04:43:35;;;;;;;45.17;7.20;;;12.00;72.70;;;;;;5058097;28;20037;-63
2021/05/20 04:46:01;;;;;;;31.25;6.40;;;12.00;72.80;;;;;;5058803;28;20021;-63
2021/05/20 04:48:27;;;;;;;17.90;5.60;;;12.00;72.70;;;;;;5057111;28;20036;-62
2021/05/20 04:50:54;;;;;;;39.45;7.03;;;11.90;72.70;;;;;;5060536;28;20383;-63
2021/05/20 04:53:23;;;;;;;28.67;5.07;;;11.90;72.80;;;;;;5056198;28;20033;-63
2021/05/20 04:55:49;;;;;;;38.78;7.95;;;12.00;72.80;;;;;;5060322;28;20082;-62
2021/05/20 04:58:14;;;;;;;34.42;7.40;;;11.90;72.90;;;;;;5056951;28;20427;-63
2021/05/20 05:00:43;;;;;;;31.85;7.30;;;11.90;73.10;;;;;;5057923;28;20112;-63
2021/05/20 05:03:09;;;;;;;27.45;8.65;;;11.90;73.10;;;;;;5057847;28;20048;-63
2021/05/20 05:05:34;;;;;;;8.30;4.97;;;11.90;73.40;;;;;;5056854;28;20049;-63
2021/05/20 05:08:00;;;;;;;18.17;7.95;;;11.90;73.30;;;;;;5059078;28;20036;-63
2021/05/20 05:10:26;;;;;;;16.20;8.15;;;11.90;73.40;;;;;;5056519;28;20029;-63
2021/05/20 05:12:52;;;;;;;18.35;8.50;;;11.90;73.50;;;;;;5060269;28;20115;-63
2021/05/20 05:15:17;;;;;;;12.40;8.25;;;11.90;73.60;;;;;;5067415;28;20028;-63
2021/05/20 05:17:43;;;;;;;12.60;8.25;;;11.90;73.70;;;;;;5065220;28;20369;-65
2021/05/20 05:20:09;;;;;;;16.60;7.88;;;11.90;73.80;;;;;;5071591;28;20028;-64
2021/05/20 05:22:35;;;;;;;12.40;7.60;;;11.90;73.80;;;;;;5071860;28;20036;-63
2021/05/20 05:25:01;;;;;;;7.38;4.38;;;11.90;73.70;;;;;;5060966;28;20468;-63
2021/05/20 05:27:27;;;;;;;14.50;8.40;;;11.90;73.50;;;;;;5071440;28;20020;-68
2021/05/20 05:29:52;;;;;;;13.48;8.73;;;11.90;73.80;;;;;;5072198;28;20028;-65
2021/05/20 05:32:18;;;;;;;15.95;8.43;;;11.90;74.00;;;;;;5071706;28;20411;-65
2021/05/20 05:34:44;;;;;;;12.77;8.00;;;11.90;74.00;;;;;;5069874;28;20067;-64
2021/05/20 05:37:09;;;;;;;20.27;9.95;;;11.90;74.00;;;;;;5067970;28;20387;-65
2021/05/20 05:39:35;;;;;;;19.02;9.68;;;11.90;74.30;;;;;;5064334;28;20043;-65
2021/05/20 05:42:00;;;;;;;14.52;9.35;;;11.90;74.50;;;;;;5067312;28;20048;-65
2021/05/20 05:44:26;;;;;;;8.90;5.25;;;11.90;74.80;;;;;;5055436;28;20025;-64
2021/05/20 05:46:52;;;;;;;14.55;8.30;;;11.90;74.50;;;;;;5056173;28;20121;-64
2021/05/20 05:49:26;;;;;;;17.35;8.95;;;12.00;74.70;;;;;;5055055;28;20055;-64
2021/05/20 05:51:55;;;;;;;;;;;12.00;74.90;;;;;;5071062;28;20106;-64
2021/05/20 05:54:21;;;;;;;2.22;1.63;;;12.00;74.50;;;;;;5057658;28;20061;-64
2021/05/20 05:56:47;;;;;;;12.38;7.53;;;12.00;74.30;;;;;;5056351;28;20127;-63
2021/05/20 05:59:12;;;;;;;14.82;5.50;;;12.00;74.80;;;;;;5060755;28;20068;-66
2021/05/20 06:01:41;;;;;;;7.57;5.45;;;12.00;74.90;;;;;;5068831;28;20055;-72
2021/05/20 06:04:08;;;;;;;4.53;2.95;;;12.00;75.00;;;;;;5069757;28;20029;-72
2021/05/20 06:06:35;;;;;;;12.70;7.95;;;12.00;75.20;;;;;;5070254;28;20061;-72
2021/05/20 06:09:01;;;;;;;6.82;4.68;;;12.00;75.90;;;;;;5069917;28;20055;-72
2021/05/20 06:11:26;;;;;;;7.35;4.93;;;12.00;76.00;;;;;;5053959;28;20029;-72
2021/05/20 06:13:52;;;;;;;4.03;2.95;;;12.00;76.20;;;;;;5061955;28;20683;-68
2021/05/20 06:16:18;;;;;;;9.77;6.18;;;12.00;76.60;;;;;;5062512;28;20021;-67
2021/05/20 06:18:43;;;;;;;8.05;5.05;;;12.00;77.70;;;;;;5059518;28;20033;-65
2021/05/20 06:21:09;;;;;;;6.13;3.15;;;12.00;77.40;;;;;;5056901;28;20480;-64
2021/05/20 06:23:35;;;;;;;11.02;7.65;;;12.00;77.40;;;;;;5060397;28;20051;-63
2021/05/20 06:26:00;;;;;;;2.75;1.65;;;12.00;77.90;;;;;;5055022;28;20029;-63
2021/05/20 06:28:26;;;;;;;8.00;4.45;;;12.10;78.00;;;;;;5059766;28;20112;-63
2021/05/20 06:30:52;;;;;;;8.52;5.35;;;12.10;78.30;;;;;;5055340;28;20064;-64
2021/05/20 06:33:19;;;;;;;6.28;3.45;;;12.10;78.60;;;;;;5056478;28;20116;-63
2021/05/20 06:35:46;;;;;;;6.55;3.88;;;12.10;78.70;;;;;;5074034;28;20051;-63
2021/05/20 06:38:12;;;;;;;3.92;2.85;;;12.20;79.00;;;;;;5073465;28;20046;-63
2021/05/20 06:40:37;;;;;;;5.10;3.28;;;12.20;79.00;;;;;;5074013;28;20103;-63
2021/05/20 06:43:03;;;;;;;1.42;1.33;;;12.20;79.10;;;;;;5072826;28;20044;-63
2021/05/20 06:45:29;;;;;;;7.80;4.80;;;12.20;79.20;;;;;;5059080;28;20071;-63
2021/05/20 06:47:54;;;;;;;4.72;3.00;;;12.20;79.40;;;;;;5055065;28;20060;-63
2021/05/20 06:50:22;;;;;;;2.40;1.92;;;12.30;79.40;;;;;;5055129;28;20025;-63
2021/05/20 06:52:50;;;;;;;3.13;1.77;;;12.30;79.40;;;;;;5056311;28;20540;-63
2021/05/20 06:55:16;;;;;;;2.53;2.03;;;12.30;79.50;;;;;;5053779;28;20029;-63
2021/05/20 07:00:26;;;;;;;5.25;2.38;;;12.40;79.80;;;;;;5069033;28;20050;-63
2021/05/20 07:02:51;;;;;;;3.17;2.40;;;12.40;80.10;;;;;;5073200;28;20032;-63
2021/05/20 07:05:17;;;;;;;3.42;2.40;;;12.40;80.30;;;;;;5073608;28;20079;-63
2021/05/20 07:07:43;;;;;;;3.92;2.70;;;12.40;80.30;;;;;;5072136;28;20071;-63
2021/05/20 07:10:09;;;;;;;3.92;2.70;;;12.40;80.30;;;;;;5073086;28;20029;-63
2021/05/20 07:12:38;;;;;;;2.20;1.52;;;12.40;80.50;;;;;;5072290;28;20388;-63
2021/05/20 07:15:05;;;;;;;5.72;3.28;;;12.50;80.70;;;;;;5072625;28;20036;-63
2021/05/20 07:17:30;;;;;;;2.83;1.90;;;12.50;80.90;;;;;;5071972;28;20560;-63
2021/05/20 07:19:56;;;;;;;3.42;2.58;;;12.60;81.20;;;;;;5073140;28;20028;-63
2021/05/20 07:22:22;;;;;;;3.55;2.67;;;12.60;81.20;;;;;;5074823;28;20060;-63
2021/05/20 07:24:47;;;;;;;3.53;2.65;;;12.60;81.00;;;;;;5074358;28;20392;-63
2021/05/20 07:27:13;;;;;;;6.13;3.13;;;12.70;80.90;;;;;;5073925;28;20048;-65
2021/05/20 07:29:39;;;;;;;7.13;5.60;;;12.70;81.20;;;;;;5074003;28;20040;-65
2021/05/20 07:32:07;;;;;;;1.40;1.27;;;12.80;81.30;;;;;;5074280;28;20027;-65
2021/05/20 07:34:35;;;;;;;2.05;1.85;;;12.80;80.80;;;;;;5072584;28;20601;-64
2021/05/20 07:37:01;;;;;;;4.07;2.33;;;12.90;81.00;;;;;;5074498;28;20020;-64
2021/05/20 07:39:26;;;;;;;5.68;1.90;;;12.90;80.90;;;;;;5074522;28;20391;-64
2021/05/20 07:41:52;;;;;;;7.97;4.85;;;13.00;80.70;;;;;;5072936;28;20024;-64
2021/05/20 07:44:18;;;;;;;7.78;4.72;;;13.10;80.80;;;;;;5060956;28;20033;-65
2021/05/20 07:46:43;;;;;;;4.38;3.08;;;13.10;80.50;;;;;;5057927;28;20040;-65
2021/05/20 07:49:09;;;;;;;6.95;4.60;;;13.20;80.00;;;;;;5055857;28;20063;-65
2021/05/20 07:51:35;;;;;;;6.80;3.10;;;13.30;80.10;;;;;;5060454;28;20028;-65
2021/05/20 07:54:02;;;;;;;7.43;3.90;;;13.40;79.60;;;;;;5061565;28;20087;-65
2021/05/20 07:56:27;;;;;;;5.07;3.40;;;13.40;79.60;;;;;;5067445;28;20350;-65
2021/05/20 07:58:53;;;;;;;1.95;1.55;;;13.40;79.40;;;;;;5072369;28;20059;-68
2021/05/20 08:01:21;;;;;;;8.85;4.13;;;13.50;79.40;;;;;;5064634;28;20052;-65
2021/05/20 08:03:56;;;;;;;2.38;1.17;;;13.50;79.40;;;;;;5072910;28;20039;-65
2021/05/20 08:06:27;;;;;;;5.53;2.55;;;13.50;79.50;;;;;;5071099;28;20032;-64
2021/05/20 08:09:00;;;;;;;7.25;4.30;;;13.50;79.50;;;;;;5064564;28;20104;-65
2021/05/20 08:11:26;;;;;;;2.97;1.65;;;13.60;79.50;;;;;;5072609;28;20357;-65
2021/05/20 08:13:52;;;;;;;4.72;3.35;;;13.60;79.40;;;;;;5070262;28;20029;-65
2021/05/20 08:16:19;;;;;;;5.65;3.50;;;13.60;79.50;;;;;;5067317;28;20426;-65
2021/05/20 08:18:44;;;;;;;4.03;2.78;;;13.70;79.70;;;;;;5072218;28;20032;-65
2021/05/20 08:21:10;;;;;;;5.13;3.15;;;13.70;79.50;;;;;;5073019;28;20054;-65
2021/05/20 08:23:36;;;;;;;2.05;1.75;;;13.70;80.00;;;;;;5063455;28;20036;-65
2021/05/20 08:26:04;;;;;;;3.30;2.25;;;13.70;79.30;;;;;;5072833;28;20029;-65
2021/05/20 08:28:29;;;;;;;5.05;3.13;;;13.70;79.10;;;;;;5072724;28;20034;-65
2021/05/20 08:30:58;;;;;;;5.25;3.58;;;13.80;79.20;;;;;;5068187;28;20028;-65
2021/05/20 08:33:23;;;;;;;1.65;1.23;;;13.80;79.30;;;;;;5072868;28;20392;-65
2021/05/20 08:35:49;;;;;;;27.10;1.45;;;13.90;79.10;;;;;;5072836;28;20039;-65
2021/05/20 08:38:15;;;;;;;3.33;2.60;;;13.90;79.00;;;;;;5072048;28;20027;-65
2021/05/20 08:40:42;;;;;;;2.15;1.45;;;14.00;79.00;;;;;;5071210;28;20028;-65
2021/05/20 08:43:08;;;;;;;4.22;2.00;;;14.00;79.00;;;;;;5072720;28;20038;-65
2021/05/20 08:45:35;;;;;;;1.17;1.08;;;14.00;78.90;;;;;;5062300;28;20090;-65
2021/05/20 08:48:01;;;;;;;4.07;2.25;;;14.10;78.80;;;;;;5072428;28;20021;-66
2021/05/20 08:50:30;;;;;;;3.92;2.58;;;14.10;78.70;;;;;;5072208;28;20020;-65
2021/05/20 08:52:56;;;;;;;2.08;1.50;;;14.10;78.50;;;;;;5069792;28;20119;-66
2021/05/20 08:55:24;;;;;;;2.72;1.35;;;14.20;78.40;;;;;;5072738;28;20047;-65
2021/05/20 08:57:50;;;;;;;4.43;2.20;;;14.30;78.30;;;;;;5070819;28;20112;-65
2021/05/20 09:00:18;;;;;;;1.50;1.15;;;14.30;78.30;;;;;;5071872;28;20111;-65
2021/05/20 09:02:45;;;;;;;5.45;1.77;;;14.40;78.10;;;;;;5062481;28;20385;-65
2021/05/20 09:05:17;;;;;;;2.55;1.27;;;14.40;77.70;;;;;;5071415;28;20467;-65
2021/05/20 09:07:46;;;;;;;2.45;2.00;;;14.40;77.50;;;;;;5064898;28;20025;-65
2021/05/20 09:10:24;;;;;;;3.10;2.10;;;14.50;77.50;;;;;;5066469;28;20025;-65
2021/05/20 09:13:03;;;;;;;1.23;1.13;;;14.60;77.60;;;;;;5069538;28;20031;-65
2021/05/20 09:15:37;;;;;;;4.13;1.55;;;14.60;77.50;;;;;;5052788;28;20474;-65
2021/05/20 09:18:15;;;;;;;4.63;1.45;;;14.70;77.40;;;;;;5062677;28;20025;-65
2021/05/20 09:20:45;;;;;;;3.83;2.20;;;14.60;77.20;;;;;;5054875;28;20036;-65
2021/05/20 09:23:17;;;;;;;1.27;1.17;;;14.70;76.70;;;;;;5064663;28;20058;-65
2021/05/20 09:25:44;;;;;;;2.28;1.67;;;14.70;76.90;;;;;;5068814;28;20047;-65
2021/05/20 09:28:11;;;;;;;1.65;1.50;;;14.70;76.90;;;;;;5061713;28;20036;-65
2021/05/20 09:30:39;;;;;;;2.08;1.65;;;14.80;76.70;;;;;;5072475;28;20017;-65
2021/05/20 09:33:12;;;;;;;3.80;1.60;;;14.80;76.50;;;;;;5069238;28;20064;-66
2021/05/20 09:35:39;;;;;;;1.02;0.98;;;14.80;76.50;;;;;;5064471;28;20070;-65
2021/05/20 09:38:17;;;;;;;2.88;1.85;;;14.90;76.70;;;;;;5066889;28;20476;-65
2021/05/20 09:40:48;;;;;;;3.60;1.55;;;14.90;76.60;;;;;;5071350;28;20484;-66
2021/05/20 09:43:18;;;;;;;0.98;0.90;;;15.00;76.50;;;;;;5059199;28;20044;-65
2021/05/20 09:45:46;;;;;;;4.47;1.20;;;15.10;76.30;;;;;;5072346;28;20096;-65
2021/05/20 09:48:12;;;;;;;1.02;0.85;;;15.10;76.10;;;;;;5068991;28;20115;-65
2021/05/20 09:50:46;;;;;;;3.80;1.30;;;15.10;76.20;;;;;;5067162;28;20064;-65
2021/05/20 09:53:17;;;;;;;2.80;1.63;;;15.10;76.10;;;;;;5062962;28;20032;-65
2021/05/20 09:55:47;;;;;;;;;;;15.20;75.60;;;;;;5069600;28;20021;-66
2021/05/20 09:58:13;;;;;;;1.38;1.27;;;15.20;75.40;;;;;;5072110;28;19915;-66
2021/05/20 10:00:40;;;;;;;0.88;0.88;;;15.30;75.20;;;;;;5071761;28;20021;-65
2021/05/20 10:03:08;;;;;;;1.35;0.90;;;15.20;75.30;;;;;;5071023;28;20052;-65
2021/05/20 10:05:37;;;;;;;1.20;1.10;;;15.30;75.70;;;;;;5071114;28;20060;-65
2021/05/20 10:08:05;;;;;;;1.35;0.80;;;15.30;75.70;;;;;;5069836;28;20480;-65
2021/05/20 10:10:34;;;;;;;3.83;1.65;;;15.30;75.20;;;;;;5059770;28;20059;-64
2021/05/20 10:13:03;;;;;;;2.15;1.38;;;15.30;74.90;;;;;;5070711;28;20060;-64
2021/05/20 10:15:29;;;;;;;0.63;0.63;;;15.40;74.70;;;;;;5062752;28;20086;-64
2021/05/20 10:17:55;;;;;;;4.97;1.35;;;15.40;74.40;;;;;;5056664;28;20107;-64
2021/05/20 10:20:22;;;;;;;3.75;1.80;;;15.40;74.20;;;;;;5071337;28;20025;-64
2021/05/20 10:22:51;;;;;;;1.92;1.55;;;15.50;74.40;;;;;;5071178;28;20079;-64
2021/05/20 10:25:18;;;;;;;2.25;1.73;;;15.50;74.10;;;;;;5071318;28;20139;-64
2021/05/20 10:27:45;;;;;;;3.97;1.92;;;15.50;74.20;;;;;;5071667;28;20036;-63
2021/05/20 10:30:13;;;;;;;2.85;1.20;;;15.60;74.40;;;;;;5069597;28;20047;-65
2021/05/20 10:32:41;;;;;;;2.40;1.58;;;15.60;74.40;;;;;;5075398;28;20077;-64
2021/05/20 10:35:15;;;;;;;2.25;1.40;;;15.70;74.40;;;;;;5075287;28;20048;-64
2021/05/20 10:37:42;;;;;;;0.82;0.80;;;15.70;74.20;;;;;;5072733;28;20032;-64
2021/05/20 10:40:22;;;;;;;1.25;1.08;;;15.80;73.60;;;;;;5074865;28;20028;-67
2021/05/20 10:43:01;;;;;;;3.65;2.33;;;15.80;73.40;;;;;;5071629;28;20048;-67
2021/05/20 10:45:26;;;;;;;2.20;1.70;;;15.90;73.70;;;;;;5073298;28;20028;-67
2021/05/20 10:48:04;;;;;;;3.38;1.33;;;15.90;73.30;;;;;;5075009;28;20208;-71
2021/05/20 10:50:55;;;;;;;1.85;0.82;;;16.00;73.50;;;;;;5074597;28;20491;-70
2021/05/20 10:53:39;;;;;;;2.10;1.40;;;16.00;73.40;;;;;;5075093;28;20032;-63
2021/05/20 10:56:23;;;;;;;4.72;1.33;;;16.10;73.10;;;;;;5061156;28;20028;-63
2021/05/20 10:58:52;;;;;;;2.75;1.10;;;16.20;73.00;;;;;;5072618;28;20037;-63
2021/05/20 11:01:21;;;;;;;1.40;0.95;;;16.20;72.40;;;;;;5074677;28;20098;-63
2021/05/20 11:03:46;;;;;;;1.00;0.95;;;16.20;72.40;;;;;;5073772;28;20043;-63
2021/05/20 11:06:20;;;;;;;2.45;1.20;;;16.30;72.80;;;;;;5073159;28;20029;-63
2021/05/20 11:08:46;;;;;;;2.80;1.52;;;16.30;71.90;;;;;;5074181;28;20089;-63
2021/05/20 11:11:46;;;;;;;5.80;1.80;;;16.40;71.50;;;;;;5073615;28;20028;-63
2021/05/20 11:14:14;;;;;;;0.47;0.47;;;16.40;71.00;;;;;;5072652;28;20070;-63
2021/05/20 11:16:44;;;;;;;1.35;0.93;;;16.40;71.70;;;;;;5074076;28;20489;-63
2021/05/20 11:19:26;;;;;;;0.70;0.70;;;16.50;71.60;;;;;;5072333;28;20621;-62
2021/05/20 11:21:55;;;;;;;1.52;0.52;;;16.60;71.00;;;;;;5074641;28;20028;-63
2021/05/20 11:24:26;;;;;;;1.45;1.05;;;16.60;70.60;;;;;;5074808;28;20043;-63
2021/05/20 11:26:56;;;;;;;2.92;1.02;;;16.70;70.30;;;;;;5073802;28;20541;-63
2021/05/20 11:29:27;;;;;;;2.28;1.30;;;16.70;68.90;;;;;;5074696;28;20029;-63
2021/05/20 11:32:03;;;;;;;1.17;0.55;;;16.80;69.10;;;;;;5074373;28;20024;-63
2021/05/20 11:37:08;;;;;;;5.90;0.55;;;16.80;68.00;;;;;;5074507;28;20403;-63
2021/05/20 11:39:33;;;;;;;1.15;0.80;;;16.90;68.00;;;;;;5073162;28;20389;-63
2021/05/20 11:42:03;;;;;;;0.57;0.55;;;16.90;67.30;;;;;;5072242;28;20024;-63
2021/05/20 11:44:29;;;;;;;0.50;0.50;;;17.00;68.40;;;;;;5074503;28;20037;-63
2021/05/20 11:46:55;;;;;;;1.02;0.93;;;17.10;68.30;;;;;;5074329;28;20059;-63
2021/05/20 11:49:23;;;;;;;0.30;0.30;;;17.10;67.50;;;;;;5072460;28;20387;-63
2021/05/20 11:51:53;;;;;;;0.88;0.73;;;17.20;68.00;;;;;;5074149;28;20107;-63
2021/05/20 11:54:24;;;;;;;0.43;0.40;;;17.20;67.40;;;;;;5073608;28;20103;-63
2021/05/20 11:56:53;;;;;;;1.95;0.80;;;17.20;67.20;;;;;;5074102;28;20025;-63
2021/05/20 11:59:24;;;;;;;0.57;0.50;;;17.30;67.50;;;;;;5074146;28;20420;-63
2021/05/20 12:01:49;;;;;;;1.20;1.10;;;17.30;67.50;;;;;;5072345;28;20158;-63
2021/05/20 12:04:18;;;;;;;0.60;0.60;;;17.40;66.10;;;;;;5073269;28;20139;-63
2021/05/20 12:06:50;;;;;;;0.73;0.73;;;17.50;67.40;;;;;;5070755;28;20373;-64
2021/05/20 12:09:16;;;;;;;1.27;0.93;;;17.50;66.80;;;;;;5072507;28;20474;-63
2021/05/20 12:11:43;;;;;;;0.50;0.50;;;17.60;66.70;;;;;;5073311;28;20067;-66
2021/05/20 12:14:32;;;;;;;4.38;1.27;;;17.70;66.80;;;;;;5073281;28;20108;-68
2021/05/20 12:16:58;;;;;;;1.95;1.23;;;17.70;66.60;;;;;;5068752;28;20032;-63
2021/05/20 12:19:26;;;;;;;3.85;1.15;;;17.70;66.30;;;;;;5068763;28;20036;-63
2021/05/20 12:22:05;;;;;;;4.20;1.88;;;17.70;67.30;;;;;;5073122;28;20388;-63
2021/05/20 12:24:32;;;;;;;1.50;1.40;;;17.80;67.10;;;;;;5072885;28;20123;-63
2021/05/20 12:27:07;;;;;;;1.67;1.00;;;17.80;66.60;;;;;;5073442;28;20028;-63
2021/05/20 12:29:33;;;;;;;1.13;0.85;;;17.90;66.60;;;;;;5072666;28;20029;-64
2021/05/20 12:31:58;;;;;;;3.85;0.93;;;17.90;66.40;;;;;;5066944;28;20043;-64
2021/05/20 12:34:24;;;;;;;2.67;1.20;;;17.90;66.30;;;;;;5066426;28;20029;-64
2021/05/20 12:36:50;;;;;;;2.83;0.82;;;17.90;66.40;;;;;;5063737;28;20040;-69
2021/05/20 12:39:16;;;;;;;1.35;1.00;;;17.90;66.30;;;;;;5072893;28;20033;-69
2021/05/20 12:41:41;;;;;;;3.22;1.38;;;18.00;66.30;;;;;;5073030;28;20078;-63
2021/05/20 12:44:17;;;;;;;1.55;1.10;;;18.00;66.00;;;;;;5064092;28;20056;-64
2021/05/20 12:46:43;;;;;;;1.85;0.75;;;18.10;66.30;;;;;;5059372;28;20457;-64
2021/05/20 12:49:18;;;;;;;1.33;0.80;;;18.10;65.70;;;;;;5062696;28;20147;-64
2021/05/20 12:51:58;;;;;;;2.90;1.23;;;18.10;65.00;;;;;;5071350;28;20024;-64
2021/05/20 12:54:28;;;;;;;0.70;0.70;;;18.20;65.00;;;;;;5062917;28;20059;-63